In Rescue
 
Open Full Screen Window  High Contrast Mode
Wind Gusting 00 knots
08
November 29, 2022 10:10 AM EST
Present Weather: Mist
Weather Information
Wind Direction
  150 °
Wind Speed
  08 kt (9 mph)
Wind Gust
  00 kt (0 mph)
Altimeter
29.95 in
Visibility
5 SM
Temperature
06° C
43° F
Dewpoint
05° C
41° F
Humidity
93%
1hr Rain Fall
00.00 in.
24hr Rain Fall
00.00 in.
Sky Condition
Overcast @ 2,700 ft
Broken @ 1,900 ft
Broken @ 900 ft
IFR

METAR KJYM 291510Z AUTO 15008KT 5SM BR BKN009 BKN019 OVC027 06/05 A2995 RMK AO2 T00590050

FAA Disclaimer: The data displayed is for advisory purposes only and is not to be used for flight planning or operations.